Time;durP1;ratioP1;P1;durP2;ratioP2;P2;SDS_P1;SDS_P2;PMS_P1;PMS_P2;Temp;Humidity;BMP_temperature;BMP_pressure;BME280_temperature;BME280_humidity;BME280_pressure;Samples;Min_cycle;Max_cycle;Signal;HPM_P1;HPM_P2
2022/09/17 00:00:59;;;;;;;;;1.00;1.00;;;;;14.74;49.93;101564.59;4975928;28;45506;-53
2022/09/17 00:03:25;;;;;;;;;2.00;1.00;;;;;14.68;49.82;101559.88;4975618;28;46056;-49
2022/09/17 00:05:59;;;;;;;;;2.00;2.00;;;;;14.70;50.15;101568.56;4976953;28;45479;-51
2022/09/17 00:08:25;;;;;;;;;2.00;1.00;;;;;14.70;50.33;101560.53;4976301;28;45316;-54
2022/09/17 00:10:50;;;;;;;;;1.00;1.00;;;;;14.57;50.05;101552.88;4975977;28;45177;-55
2022/09/17 00:13:15;;;;;;;;;2.33;1.00;;;;;14.66;50.11;101569.88;4975598;28;46056;-54
2022/09/17 00:15:43;;;;;;;;;1.00;1.00;;;;;14.63;50.10;101573.72;4975306;28;45560;-55
2022/09/17 00:18:08;;;;;;;;;2.00;2.00;;;;;14.61;50.04;101569.50;4976692;28;45490;-55
2022/09/17 00:20:42;;;;;;;;;2.00;2.00;;;;;14.60;50.50;101574.00;4976114;28;45395;-54
2022/09/17 00:23:08;;;;;;;;;2.00;2.00;;;;;14.59;50.22;101569.66;4975644;28;45258;-54
2022/09/17 00:25:37;;;;;;;;;1.33;1.33;;;;;14.58;50.31;101564.44;4976332;28;45335;-50
2022/09/17 00:28:03;;;;;;;;;1.33;1.00;;;;;14.55;50.63;101572.81;4976390;28;45530;-52
2022/09/17 00:30:28;;;;;;;;;2.33;2.33;;;;;14.53;50.58;101567.56;4976795;28;45366;-52
2022/09/17 00:32:56;;;;;;;;;1.00;1.00;;;;;14.47;50.94;101558.28;4975947;28;45403;-49
2022/09/17 00:35:23;;;;;;;;;3.00;1.67;;;;;14.49;50.70;101576.91;4975577;28;45402;-54
2022/09/17 00:37:48;;;;;;;;;1.33;1.33;;;;;14.48;50.42;101568.03;4975575;28;45445;-53
2022/09/17 00:40:13;;;;;;;;;3.00;1.00;;;;;14.47;50.82;101565.50;4974819;28;45760;-54
2022/09/17 00:42:39;;;;;;;;;2.00;2.00;;;;;14.47;51.09;101568.16;4973771;28;45300;-51
2022/09/17 00:45:04;;;;;;;;;1.00;1.00;;;;;14.45;51.06;101572.81;4973922;28;45298;-48
2022/09/17 00:47:34;;;;;;;;;1.00;1.00;;;;;14.45;51.06;101572.81;4973878;28;45331;-53
2022/09/17 00:50:20;;;;;;;;;1.00;1.00;;;;;14.41;51.06;101566.09;4973973;28;45447;-47
2022/09/17 00:52:50;;;;;;;;;2.00;1.00;;;;;14.40;51.14;101573.28;4973661;28;46453;-50
2022/09/17 00:55:22;;;;;;;;;2.00;2.00;;;;;14.39;51.17;101565.41;4973770;28;45403;-50
2022/09/17 00:57:51;;;;;;;;;1.00;1.00;;;;;14.27;51.04;101553.22;4973801;28;45378;-53
2022/09/17 01:00:17;;;;;;;;;4.00;1.00;;;;;14.32;51.08;101558.97;4973712;28;45383;-52
2022/09/17 01:02:43;;;;;;;;;1.00;1.00;;;;;14.36;51.04;101571.88;4973719;28;46117;-54
2022/09/17 01:05:10;;;;;;;;;0.67;0.67;;;;;14.32;51.72;101569.66;4973734;28;45343;-54
2022/09/17 01:07:55;;;;;;;;;2.67;0.00;;;;;14.33;51.28;101576.72;4973789;28;45233;-53
2022/09/17 01:10:44;;;;;;;;;4.00;1.00;;;;;14.31;51.34;101573.34;4974126;28;45224;-54
2022/09/17 01:13:33;;;;;;;;;4.00;1.00;;;;;14.29;51.67;101576.19;5033430;28;47084;-55
2022/09/17 01:16:09;;;;;;;;;0.00;0.00;;;;;14.29;51.59;101572.69;5033065;28;45429;-52
2022/09/17 01:18:54;;;;;;;;;1.00;1.00;;;;;14.23;51.78;101566.91;5033335;28;45349;-53
2022/09/17 01:21:38;;;;;;;;;1.00;1.00;;;;;14.26;51.63;101576.47;5033380;28;45548;-51
2022/09/17 01:24:35;;;;;;;;;1.00;1.00;;;;;14.25;51.56;101573.97;5033147;28;46182;-55
2022/09/17 01:27:31;;;;;;;;;0.00;0.00;;;;;14.19;51.80;101567.34;4953512;28;45500;-52
2022/09/17 01:30:08;;;;;;;;;0.00;0.00;;;;;14.21;51.79;101582.28;4954441;28;45459;-53
2022/09/17 01:32:44;;;;;;;;;1.67;0.33;;;;;14.15;52.00;101577.50;4954763;28;45407;-54
2022/09/17 01:35:14;;;;;;;;;2.00;0.33;;;;;14.18;51.97;101579.06;4954262;28;47140;-53
2022/09/17 01:38:04;;;;;;;;;2.00;1.00;;;;;14.17;51.85;101586.25;4954135;28;45332;-52
2022/09/17 01:40:48;;;;;;;;;0.67;0.67;;;;;14.13;52.01;101584.88;4915579;28;1135255;-54
2022/09/17 01:43:25;;;;;;;;;3.00;1.00;;;;;14.11;51.82;101586.81;4955864;28;45409;-54
2022/09/17 01:45:57;;;;;;;;;0.00;0.00;;;;;14.08;51.92;101594.34;4955469;28;46153;-54
2022/09/17 01:48:28;;;;;;;;;3.00;0.00;;;;;14.03;52.43;101581.41;4955517;28;45552;-54
2022/09/17 01:50:58;;;;;;;;;2.00;0.00;;;;;14.03;52.33;101596.59;5002216;28;45538;-53
2022/09/17 01:53:29;;;;;;;;;1.00;1.00;;;;;14.04;52.73;101596.47;5014642;28;45321;-53
2022/09/17 01:55:58;;;;;;;;;1.00;1.00;;;;;14.00;52.97;101597.75;5014360;28;46331;-54
2022/09/17 01:58:34;;;;;;;;;2.00;1.67;;;;;13.97;52.94;101596.19;5014331;28;45468;-55
2022/09/17 02:01:03;;;;;;;;;1.00;0.33;;;;;13.96;52.79;101602.53;5014178;28;45390;-54
2022/09/17 02:03:52;;;;;;;;;2.00;0.00;;;;;13.55;52.77;101561.06;4993595;28;45386;-54
2022/09/17 02:06:23;;;;;;;;;2.00;1.00;;;;;13.94;52.56;101609.88;5033995;28;46230;-55
2022/09/17 02:08:57;;;;;;;;;0.00;0.00;;;;;13.93;52.55;101605.50;5034225;28;45364;-55
2022/09/17 02:11:22;;;;;;;;;1.00;1.00;;;;;13.81;52.74;101593.31;5034108;28;45472;-49
2022/09/17 02:14:12;;;;;;;;;2.00;1.67;;;;;13.91;52.99;101598.66;5034489;28;45378;-55
2022/09/17 02:16:45;;;;;;;;;1.00;1.00;;;;;13.87;53.26;101606.13;5033752;28;46276;-53
2022/09/17 02:19:27;;;;;;;;;2.33;1.00;;;;;13.86;53.16;101606.25;5033863;28;45470;-48
2022/09/17 02:22:14;;;;;;;;;1.00;1.00;;;;;13.81;53.38;101598.66;5034057;28;45393;-54
2022/09/17 02:25:16;;;;;;;;;2.00;1.00;;;;;13.83;53.19;101609.22;5034176;28;45353;-53
2022/09/17 02:27:51;;;;;;;;;0.00;0.00;;;;;13.81;52.79;101604.00;5034038;28;45957;-53
2022/09/17 02:30:16;;;;;;;;;3.00;1.00;;;;;13.78;53.27;101608.81;5033489;28;45511;-50
2022/09/17 02:32:42;;;;;;;;;0.00;0.00;;;;;13.76;53.56;101606.28;5034124;28;45569;-54
2022/09/17 02:35:09;;;;;;;;;2.00;1.00;;;;;13.75;53.59;101611.78;5034288;28;45455;-53
2022/09/17 02:37:34;;;;;;;;;1.00;1.00;;;;;13.68;53.93;101599.00;5033826;28;46228;-49
2022/09/17 02:40:00;;;;;;;;;1.67;0.00;;;;;13.69;53.56;101600.69;5036095;28;45342;-49
2022/09/17 02:42:53;;;;;;;;;0.00;0.00;;;;;13.68;53.23;101593.63;5028984;28;45500;-51
2022/09/17 02:45:37;;;;;;;;;2.00;0.00;;;;;13.66;53.39;101597.47;4976825;28;45263;-53
2022/09/17 02:48:11;;;;;;;;;2.00;1.00;;;;;13.65;53.75;101603.78;4975186;28;46033;-52
2022/09/17 02:51:16;;;;;;;;;1.00;1.00;;;;;13.61;53.67;101597.03;4976813;28;45365;-52
2022/09/17 02:54:00;;;;;;;;;1.00;1.00;;;;;13.60;53.50;101598.88;4976861;28;45478;-54
2022/09/17 02:56:54;;;;;;;;;2.00;1.00;;;;;13.59;53.51;101601.72;4976719;28;45378;-51
2022/09/17 02:59:36;;;;;;;;;1.67;0.00;;;;;13.55;53.42;101592.28;4976424;28;47260;-55
2022/09/17 03:02:12;;;;;;;;;0.00;0.00;;;;;13.55;53.43;101598.47;4976534;28;45314;-53
2022/09/17 03:04:38;;;;;;;;;1.00;0.00;;;;;13.45;53.30;101586.97;4976794;28;45284;-53
2022/09/17 03:07:10;;;;;;;;;5.00;1.00;;;;;13.55;53.49;101602.97;4977008;28;45549;-54
2022/09/17 03:09:37;;;;;;;;;1.00;1.00;;;;;13.52;53.53;101604.09;4976338;28;47106;-55
2022/09/17 03:12:03;;;;;;;;;0.67;0.67;;;;;13.48;53.43;101595.56;4976498;28;45260;-56
2022/09/17 03:14:28;;;;;;;;;1.00;1.00;;;;;13.50;53.77;101600.75;4976698;28;45318;-54
2022/09/17 03:16:53;;;;;;;;;4.00;1.00;;;;;13.48;53.72;101608.06;4976481;28;45448;-55
2022/09/17 03:19:19;;;;;;;;;1.00;1.00;;;;;13.46;53.88;101604.69;4976346;28;45464;-53
2022/09/17 03:21:44;;;;;;;;;1.00;1.00;;;;;13.44;53.46;101596.84;4976476;28;45402;-54
2022/09/17 03:24:10;;;;;;;;;1.00;1.00;;;;;13.35;53.47;101588.81;4976496;28;45307;-53
2022/09/17 03:26:36;;;;;;;;;2.00;2.00;;;;;13.43;53.66;101604.97;4976655;28;45462;-54
2022/09/17 03:29:02;;;;;;;;;1.00;0.00;;;;;13.36;54.14;101595.88;4977291;28;46163;-52
2022/09/17 03:31:28;;;;;;;;;2.00;0.00;;;;;13.43;53.95;101604.97;4976203;28;45323;-50
2022/09/17 03:33:53;;;;;;;;;3.00;1.67;;;;;13.41;53.82;101612.31;4974945;28;45393;-55
2022/09/17 03:36:19;;;;;;;;;0.00;0.00;;;;;13.40;53.69;101606.13;4976302;28;45347;-52
2022/09/17 03:38:44;;;;;;;;;2.33;1.33;;;;;13.39;54.20;101603.56;4977576;28;45310;-53
2022/09/17 03:41:10;;;;;;;;;1.00;1.00;;;;;13.38;54.20;101607.25;4975781;28;45281;-54
2022/09/17 03:43:35;;;;;;;;;0.33;0.33;;;;;13.36;53.62;101604.72;4976234;28;45236;-53
2022/09/17 03:46:01;;;;;;;;;2.00;0.00;;;;;13.34;53.72;101601.34;4976210;28;45415;-53
2022/09/17 03:48:26;;;;;;;;;1.00;1.00;;;;;13.32;53.96;101606.00;4974522;28;45921;-54
2022/09/17 03:50:51;;;;;;;;;2.00;0.00;;;;;13.33;54.22;101610.34;4974985;28;45334;-53
2022/09/17 03:53:17;;;;;;;;;1.00;1.00;;;;;13.31;53.50;101614.13;4976019;28;45398;-55
2022/09/17 03:55:42;;;;;;;;;2.00;0.00;;;;;13.30;53.70;101615.13;4976445;28;45224;-54
2022/09/17 03:58:08;;;;;;;;;1.00;1.00;;;;;13.27;53.69;101605.56;4975785;28;45746;-51
2022/09/17 04:00:36;;;;;;;;;0.00;0.00;;;;;13.28;54.06;101619.78;4975831;28;45315;-50
2022/09/17 04:03:03;;;;;;;;;0.00;0.00;;;;;13.28;53.62;101622.47;4976026;28;45409;-54
2022/09/17 04:05:28;;;;;;;;;1.00;0.33;;;;;13.12;54.53;101604.31;4975841;28;45267;-53
2022/09/17 04:07:53;;;;;;;;;1.00;1.00;;;;;13.23;54.33;101622.88;4975634;28;47214;-54
2022/09/17 04:10:19;;;;;;;;;1.00;1.00;;;;;13.22;54.24;101616.69;4975756;28;45391;-55
2022/09/17 04:12:44;;;;;;;;;0.00;0.00;;;;;13.13;53.97;101605.97;4975857;28;45279;-54
2022/09/17 04:15:09;;;;;;;;;1.33;1.33;;;;;13.10;54.07;101606.25;4976213;28;45354;-54
2022/09/17 04:17:35;;;;;;;;;2.00;0.00;;;;;13.20;54.06;101632.00;4975423;28;45507;-53
2022/09/17 04:20:01;;;;;;;;;1.67;1.67;;;;;13.18;54.39;101635.78;4975608;28;45461;-54
2022/09/17 04:22:26;;;;;;;;;0.67;0.67;;;;;13.16;54.59;101633.25;4975910;28;45379;-54
2022/09/17 04:24:52;;;;;;;;;2.67;1.00;;;;;13.17;54.39;101642.13;4975919;28;45397;-52
2022/09/17 04:27:17;;;;;;;;;0.00;0.00;;;;;13.05;54.74;101628.06;4975606;28;45350;-54
2022/09/17 04:29:42;;;;;;;;;0.33;0.33;;;;;13.15;55.06;101636.09;4975486;28;45379;-55
2022/09/17 04:32:08;;;;;;;;;0.67;0.67;;;;;13.13;54.63;101646.88;4975750;28;45296;-54
2022/09/17 04:34:34;;;;;;;;;0.00;0.00;;;;;13.13;55.31;101640.72;4976019;28;45208;-53
2022/09/17 04:36:59;;;;;;;;;0.67;0.67;;;;;12.99;55.20;101624.13;4975355;28;46971;-55
2022/09/17 04:39:24;;;;;;;;;1.00;0.33;;;;;13.11;55.05;101643.53;4975184;28;45421;-53
2022/09/17 04:41:50;;;;;;;;;0.67;0.67;;;;;13.14;55.40;101639.72;4975734;28;45314;-54
2022/09/17 04:44:15;;;;;;;;;0.00;0.00;;;;;13.13;55.35;101641.53;4975742;28;45306;-51
2022/09/17 04:46:40;;;;;;;;;2.33;1.00;;;;;13.12;55.16;101649.72;4975143;28;45346;-54
2022/09/17 04:49:07;;;;;;;;;1.00;0.33;;;;;13.13;55.35;101649.56;4975193;28;45223;-55
2022/09/17 04:51:32;;;;;;;;;1.00;1.00;;;;;13.14;55.15;101650.41;4975359;28;45425;-54
2022/09/17 04:53:57;;;;;;;;;1.00;1.00;;;;;13.12;55.02;101649.72;4975433;28;45354;-50
2022/09/17 04:56:23;;;;;;;;;0.00;0.00;;;;;13.13;55.28;101648.72;4975360;28;45420;-53
2022/09/17 04:58:48;;;;;;;;;3.00;1.00;;;;;13.06;55.51;101636.91;4975053;28;45395;-54
2022/09/17 05:01:14;;;;;;;;;1.67;1.00;;;;;13.12;55.17;101641.69;4974641;28;45391;-51
2022/09/17 05:03:39;;;;;;;;;4.00;1.00;;;;;13.10;55.33;101643.66;4975496;28;45426;-52
2022/09/17 05:06:04;;;;;;;;;2.67;2.00;;;;;13.11;55.30;101654.22;4975014;28;46116;-53
2022/09/17 05:08:30;;;;;;;;;1.00;0.00;;;;;13.11;55.11;101658.72;4975138;28;45330;-54
2022/09/17 05:10:55;;;;;;;;;0.67;0.00;;;;;13.08;55.31;101659.84;4975322;28;45322;-53
2022/09/17 05:13:21;;;;;;;;;1.33;1.00;;;;;13.08;55.33;101664.34;4974124;28;45358;-53
2022/09/17 05:15:46;;;;;;;;;1.00;1.00;;;;;13.06;55.46;101661.81;4975023;28;46429;-54
2022/09/17 05:18:12;;;;;;;;;2.00;0.00;;;;;13.04;55.76;101658.44;4974882;28;45232;-51
2022/09/17 05:20:38;;;;;;;;;4.00;2.00;;;;;13.05;55.25;101656.59;4975098;28;45362;-55
2022/09/17 05:23:03;;;;;;;;;1.33;1.00;;;;;12.98;55.63;101654.50;4975168;28;45219;-54
2022/09/17 05:25:29;;;;;;;;;2.33;1.00;;;;;13.02;55.63;101655.06;4974607;28;45402;-53
2022/09/17 05:27:55;;;;;;;;;1.00;1.00;;;;;13.02;55.82;101656.88;4974639;28;45303;-52
2022/09/17 05:30:21;;;;;;;;;3.67;0.67;;;;;13.02;55.89;101662.22;4974806;28;45363;-54
2022/09/17 05:32:47;;;;;;;;;0.67;0.67;;;;;12.99;56.09;101666.88;4975081;28;45457;-54
2022/09/17 05:35:13;;;;;;;;;3.00;1.67;;;;;13.01;55.48;101668.53;4974536;28;47025;-55
2022/09/17 05:37:39;;;;;;;;;1.00;1.00;;;;;13.01;56.52;101676.56;4974370;28;45402;-55
2022/09/17 05:40:06;;;;;;;;;3.00;1.67;;;;;12.96;56.71;101672.47;4974428;28;45383;-52
2022/09/17 05:42:32;;;;;;;;;1.33;1.00;;;;;12.98;55.64;101669.69;4974917;28;45513;-52
2022/09/17 05:44:57;;;;;;;;;2.00;1.67;;;;;12.96;56.08;101675.16;4974318;28;45277;-53
2022/09/17 05:47:23;;;;;;;;;1.67;1.00;;;;;12.94;56.62;101681.63;4974350;28;45419;-54
2022/09/17 05:49:48;;;;;;;;;1.00;1.00;;;;;12.93;56.62;101680.75;4974586;28;45196;-55
2022/09/17 05:52:15;;;;;;;;;1.00;1.00;;;;;12.92;56.59;101676.41;4974911;28;45402;-51
2022/09/17 05:54:40;;;;;;;;;1.00;1.00;;;;;12.92;56.51;101676.41;4974209;28;46329;-52
2022/09/17 05:57:06;;;;;;;;;0.00;0.00;;;;;12.93;56.33;101682.59;4974141;28;45308;-48
2022/09/17 05:59:32;;;;;;;;;1.00;1.00;;;;;12.91;56.96;101674.72;4975765;28;45364;-52
2022/09/17 06:01:57;;;;;;;;;0.00;0.00;;;;;12.95;56.28;101685.97;4974299;28;45685;-50
2022/09/17 06:04:23;;;;;;;;;3.00;1.33;;;;;12.95;56.65;101685.97;4974218;28;45292;-53
2022/09/17 06:06:48;;;;;;;;;1.00;1.00;;;;;12.97;56.11;101684.00;4974093;28;45351;-53
2022/09/17 06:09:13;;;;;;;;;1.00;1.00;;;;;12.98;56.25;101685.72;4974220;28;45638;-49
2022/09/17 06:11:39;;;;;;;;;3.00;2.00;;;;;13.01;56.50;101685.41;4974657;28;45410;-47
2022/09/17 06:14:04;;;;;;;;;0.67;0.67;;;;;13.03;56.03;101693.31;4975128;28;45330;-47
2022/09/17 06:16:30;;;;;;;;;0.00;0.00;;;;;13.05;55.76;101694.84;4977249;28;45318;-47
2022/09/17 06:18:55;;;;;;;;;0.00;0.00;;;;;13.01;55.73;101677.41;4977156;28;45837;-53
2022/09/17 06:21:21;;;;;;;;;2.33;1.00;;;;;12.99;55.88;101677.53;4977484;28;45328;-47
2022/09/17 06:23:51;;;;;;;;;4.00;0.00;;;;;13.15;55.44;101692.19;4976929;28;47157;-46
2022/09/17 06:26:16;;;;;;;;;1.33;0.67;;;;;13.14;55.59;101691.31;4977035;28;45631;-49
2022/09/17 06:28:42;;;;;;;;;1.00;1.00;;;;;13.17;54.93;101693.72;4977215;28;45409;-51
2022/09/17 06:31:09;;;;;;;;;1.00;1.00;;;;;13.18;54.92;101695.41;4977293;28;45303;-52
2022/09/17 06:33:35;;;;;;;;;1.00;1.00;;;;;13.23;55.55;101693.19;4976803;28;46382;-51
2022/09/17 06:36:06;;;;;;;;;1.67;1.00;;;;;13.27;54.89;101696.41;4976831;28;45381;-48
2022/09/17 06:38:33;;;;;;;;;1.00;1.00;;;;;13.28;54.94;101694.59;4976953;28;45503;-48
2022/09/17 06:40:58;;;;;;;;;0.67;0.67;;;;;13.34;54.76;101696.69;4976630;28;45451;-47
2022/09/17 06:43:24;;;;;;;;;0.00;0.00;;;;;13.34;54.21;101694.88;4976610;28;46176;-50
2022/09/17 06:45:59;;;;;;;;;2.00;0.33;;;;;13.36;54.19;101698.25;4976823;28;45411;-46
2022/09/17 06:48:26;;;;;;;;;2.67;1.00;;;;;13.34;54.14;101697.53;4976920;28;45295;-50
2022/09/17 06:50:53;;;;;;;;;1.00;1.00;;;;;13.42;53.97;101710.19;4977220;28;45245;-47
2022/09/17 06:53:21;;;;;;;;;1.67;1.67;;;;;13.44;53.86;101725.13;4976367;28;45326;-48
2022/09/17 06:55:47;;;;;;;;;2.33;1.67;;;;;13.47;53.64;101714.13;4976577;28;45327;-52
2022/09/17 06:58:12;;;;;;;;;3.67;1.33;;;;;13.50;53.81;101722.88;4976661;28;45330;-53
2022/09/17 07:00:39;;;;;;;;;3.00;2.00;;;;;13.52;53.48;101713.69;4976833;28;45382;-48
2022/09/17 07:03:04;;;;;;;;;1.00;1.00;;;;;13.56;53.67;101719.59;4976330;28;47362;-49
2022/09/17 07:05:31;;;;;;;;;1.00;1.00;;;;;13.60;53.27;101713.00;4976202;28;45370;-55
2022/09/17 07:08:02;;;;;;;;;4.00;0.67;;;;;13.63;53.41;101716.22;4976550;28;45371;-54
2022/09/17 07:10:27;;;;;;;;;1.67;1.67;;;;;13.59;53.43;101700.63;4976612;28;45583;-48
2022/09/17 07:12:53;;;;;;;;;3.33;0.33;;;;;13.64;53.83;101707.22;4976403;28;46373;-47
2022/09/17 07:15:19;;;;;;;;;1.00;1.00;;;;;13.73;53.65;101714.38;4976282;28;45382;-53
2022/09/17 07:17:45;;;;;;;;;3.33;1.67;;;;;13.78;53.12;101713.97;4975977;28;45243;-52
2022/09/17 07:20:11;;;;;;;;;0.33;0.33;;;;;13.83;53.53;101709.03;4976666;28;45322;-47
2022/09/17 07:22:36;;;;;;;;;0.67;0.67;;;;;13.91;53.27;101708.31;4976340;28;45358;-47
2022/09/17 07:25:03;;;;;;;;;0.67;0.67;;;;;14.08;52.87;101704.03;4976321;28;45612;-49
2022/09/17 07:27:29;;;;;;;;;0.67;0.67;;;;;14.19;52.56;101710.03;4976432;28;45339;-47
2022/09/17 07:29:55;;;;;;;;;0.67;0.67;;;;;14.37;52.25;101707.44;4975067;28;45363;-53
2022/09/17 07:32:21;;;;;;;;;1.00;1.00;;;;;14.67;51.23;101702.81;4976080;28;46035;-52
2022/09/17 07:34:48;;;;;;;;;0.33;0.33;;;;;15.96;48.93;101701.44;4975977;28;45493;-52
2022/09/17 07:37:13;;;;;;;;;7.00;0.00;;;;;16.19;48.14;101712.47;4976268;28;45293;-49
2022/09/17 07:39:40;;;;;;;;;1.00;1.00;;;;;15.91;47.49;101699.22;4976072;28;45395;-45
2022/09/17 07:42:05;;;;;;;;;1.00;1.00;;;;;15.74;48.20;101697.44;4976033;28;46147;-52
2022/09/17 07:44:30;;;;;;;;;4.00;1.00;;;;;15.61;48.32;101703.19;4977573;27;45244;-47
2022/09/17 07:46:56;;;;;;;;;0.00;0.00;;;;;15.56;48.14;101710.03;4976272;28;45413;-52
2022/09/17 07:49:21;;;;;;;;;1.00;1.00;;;;;15.49;48.29;101709.78;4976179;28;45499;-46
2022/09/17 07:51:47;;;;;;;;;2.00;1.00;;;;;15.44;48.41;101712.09;4975959;28;45461;-52
2022/09/17 07:54:12;;;;;;;;;1.00;1.00;;;;;15.40;48.31;101708.88;4975992;28;45684;-53
2022/09/17 07:56:37;;;;;;;;;1.00;1.00;;;;;15.40;48.38;101716.09;4976070;28;45415;-52
2022/09/17 07:59:03;;;;;;;;;1.67;1.00;;;;;15.43;48.28;101716.63;4976082;28;45263;-52
2022/09/17 08:01:32;;;;;;;;;0.00;0.00;;;;;15.51;48.09;101713.19;4975688;28;46064;-47
2022/09/17 08:03:58;;;;;;;;;0.00;0.00;;;;;15.58;48.06;101714.22;4975892;28;45522;-55
2022/09/17 08:06:26;;;;;;;;;2.00;0.67;;;;;15.75;47.77;101717.91;4975853;28;45545;-52
2022/09/17 08:08:52;;;;;;;;;0.67;0.67;;;;;15.96;47.51;101717.53;4976170;28;45393;-53
2022/09/17 08:11:19;;;;;;;;;0.67;0.33;;;;;16.27;46.98;101723.25;4975536;28;46479;-53
2022/09/17 08:13:52;;;;;;;;;2.33;1.00;;;;;17.75;44.90;101717.22;4975624;28;45297;-48
2022/09/17 08:16:19;;;;;;;;;1.67;0.00;;;;;19.33;41.58;101708.13;4975708;28;45351;-54
2022/09/17 08:18:45;;;;;;;;;2.67;0.00;;;;;20.24;39.22;101710.81;4975807;28;45366;-51
2022/09/17 08:21:16;;;;;;;;;1.00;1.00;;;;;19.79;40.29;101718.88;4976537;28;45296;-55
2022/09/17 08:23:43;;;;;;;;;1.00;1.00;;;;;19.62;40.08;101722.75;4975510;28;45250;-53
2022/09/17 08:26:17;;;;;;;;;3.00;2.00;;;;;19.43;40.39;101718.69;4975901;28;45275;-51
2022/09/17 08:28:46;;;;;;;;;1.00;1.00;;;;;19.56;40.28;101727.00;4975697;28;45478;-53
2022/09/17 08:31:13;;;;;;;;;1.75;1.00;;;;;21.76;37.21;101717.91;4975422;28;47237;-55
2022/09/17 08:33:39;;;;;;;;;3.50;1.00;;;;;23.90;33.69;101716.59;4975443;28;45347;-54
2022/09/17 08:36:06;;;;;;;;;2.25;0.75;;;;;25.51;30.69;101717.56;4974801;28;45251;-55
2022/09/17 08:38:38;;;;;;;;;3.25;2.00;;;;;26.74;28.76;101716.69;4976103;28;45260;-55
2022/09/17 08:41:09;;;;;;;;;3.60;1.00;;;;;26.73;29.44;101728.69;4975582;28;45350;-55
2022/09/17 08:43:48;;;;;;;;;0.40;0.40;;;;;27.93;27.67;101728.53;4975239;28;45320;-53
2022/09/17 08:46:13;;;;;;;;;0.00;0.00;;;;;28.76;26.03;101726.47;4975413;28;45472;-51
2022/09/17 08:48:44;;;;;;;;;3.75;0.00;;;;;29.43;25.83;101717.56;4974068;28;45326;-55
2022/09/17 08:51:31;;;;;;;;;1.20;0.60;;;;;30.15;25.38;101725.03;4975176;28;45410;-52
2022/09/17 08:54:14;;;;;;;;;2.00;0.60;;;;;30.69;25.94;101739.72;4975138;28;45378;-55
2022/09/17 08:56:44;;;;;;;;;0.00;0.00;;;;;31.04;23.65;101736.53;4975441;28;45486;-56
2022/09/17 08:59:16;;;;;;;;;2.20;0.40;;;;;31.53;23.12;101741.13;4975452;28;45464;-48
2022/09/17 09:01:56;;;;;;;;;0.00;0.00;;;;;31.79;22.13;101736.66;4975388;28;47475;-54
2022/09/17 09:04:40;;;;;;;;;2.60;0.40;;;;;31.87;22.84;101730.69;4975332;28;45154;-53
2022/09/17 09:07:11;;;;;;;;;0.00;0.00;;;;;31.09;23.29;101729.44;4975395;28;45490;-53
2022/09/17 09:09:45;;;;;;;;;1.20;0.80;;;;;30.89;22.98;101733.66;4975426;28;45415;-53
2022/09/17 09:12:17;;;;;;;;;1.80;0.00;;;;;30.75;23.28;101704.91;4975237;28;46212;-46
2022/09/17 09:14:51;;;;;;;;;1.20;0.80;;;;;30.71;23.23;101726.53;4975218;28;45404;-48
2022/09/17 09:17:20;;;;;;;;;1.00;1.00;;;;;30.00;24.24;101737.44;4975156;27;45173;-51
2022/09/17 09:19:46;;;;;;;;;0.00;0.00;;;;;30.26;23.36;101743.31;4975214;28;45351;-50
2022/09/17 09:22:48;;;;;;;;;0.50;0.00;;;;;30.76;24.32;101742.25;4975140;28;45357;-51
2022/09/17 09:25:28;;;;;;;;;1.60;0.80;;;;;30.54;23.96;101736.78;5035234;28;45337;-54
2022/09/17 09:28:11;;;;;;;;;1.00;1.00;;;;;30.23;24.71;101739.13;5035069;28;45379;-50
2022/09/17 09:30:59;;;;;;;;;0.00;0.00;;;;;30.36;23.83;101737.09;5035378;28;45470;-53
2022/09/17 09:33:31;;;;;;;;;2.20;0.40;;;;;30.72;25.26;101741.09;5034767;28;46383;-52
2022/09/17 09:35:58;;;;;;;;;2.00;0.60;;;;;31.00;22.58;101737.31;5034672;28;45465;-54
2022/09/17 09:38:39;;;;;;;;;0.60;0.00;;;;;31.40;22.40;101734.16;5034974;28;45421;-55
2022/09/17 09:41:11;;;;;;;;;1.00;0.00;;;;;31.85;21.88;101732.84;5034386;28;45408;-55
2022/09/17 09:43:44;;;;;;;;;4.00;0.40;;;;;31.84;22.30;101736.69;5034600;28;46971;-55
2022/09/17 09:46:37;;;;;;;;;0.80;0.80;;;;;31.54;21.89;101743.59;5034462;28;45440;-53
2022/09/17 09:49:11;;;;;;;;;2.40;0.00;;;;;33.82;19.83;101746.63;4956862;28;45384;-53
2022/09/17 09:52:03;;;;;;;;;0.80;0.80;;;;;36.45;19.56;101749.88;4959450;28;45493;-54
2022/09/17 09:55:08;;;;;;;;;2.20;2.00;;;;;38.78;16.11;101748.03;4958848;28;46105;-45
2022/09/17 09:57:57;;;;;;;;;0.60;0.00;;;;;37.47;16.64;101746.72;4882369;29;45407;-54
2022/09/17 10:00:27;;;;;;;;;0.00;0.00;;;;;36.88;16.86;101752.59;4938825;28;45435;-53
2022/09/17 10:03:09;;;;;;;;;0.00;0.00;;;;;38.09;17.51;101742.50;4939882;28;45491;-55
2022/09/17 10:05:35;;;;;;;;;1.60;0.00;;;;;39.15;15.24;101732.16;4939194;28;48789;-53
2022/09/17 10:08:13;;;;;;;;;0.00;0.00;;;;;40.92;13.74;101730.22;4923479;28;45425;-54
2022/09/17 10:11:02;;;;;;;;;0.00;0.00;;;;;39.84;14.80;101731.75;4939730;28;45444;-52
2022/09/17 10:13:34;;;;;;;;;1.00;0.00;;;;;41.51;13.04;101730.50;4923531;28;45557;-50
2022/09/17 10:16:24;;;;;;;;;0.00;0.00;;;;;43.01;12.46;101741.31;4939389;28;45427;-52
2022/09/17 10:19:10;;;;;;;;;0.00;0.00;;;;;43.73;11.57;101725.91;4939196;28;45382;-57
2022/09/17 10:21:40;;;;;;;;;0.00;0.00;;;;;43.95;11.79;101732.25;4939420;28;45367;-54
2022/09/17 10:24:32;;;;;;;;;1.00;1.00;;;;;44.07;11.51;101721.84;4939786;28;45391;-55
2022/09/17 10:27:03;;;;;;;;;0.00;0.00;;;;;41.36;12.63;101728.22;4886773;28;45727;-55
2022/09/17 10:29:29;;;;;;;;;1.00;0.00;;;;;37.76;14.63;101724.25;4879055;29;45300;-54
2022/09/17 10:31:56;;;;;;;;;0.25;0.00;;;;;39.78;13.92;101728.31;4879046;29;45674;-54
2022/09/17 10:34:28;;;;;;;;;0.00;0.00;;;;;42.03;12.67;101713.53;4914930;28;45462;-52
2022/09/17 10:36:57;;;;;;;;;0.40;0.40;;;;;40.22;13.47;101718.16;4976751;28;46271;-53
2022/09/17 10:39:25;;;;;;;;;0.00;0.00;;;;;36.94;15.30;101726.47;4976824;28;45346;-56
2022/09/17 10:41:57;;;;;;;;;0.20;0.00;;;;;35.71;18.62;101726.28;4977115;28;45388;-49
2022/09/17 10:44:28;;;;;;;;;0.20;0.20;;;;;38.69;14.79;101719.31;4977317;28;45429;-53
2022/09/17 10:46:54;;;;;;;;;0.00;0.00;;;;;40.35;13.52;101722.75;4976712;28;47133;-53
2022/09/17 10:49:31;;;;;;;;;0.00;0.00;;;;;38.65;14.44;101724.66;4976537;28;45514;-51
2022/09/17 10:52:22;;;;;;;;;0.00;0.00;;;;;37.90;15.90;101722.34;4976844;28;45311;-54
2022/09/17 10:54:56;;;;;;;;;1.00;0.00;;;;;36.19;15.90;101718.84;4977129;28;45305;-53
2022/09/17 10:57:51;;;;;;;;;0.40;0.40;;;;;34.52;17.07;101727.41;4976610;28;45424;-54
2022/09/17 11:00:18;;;;;;;;;0.40;0.40;;;;;37.74;15.13;101719.00;5036326;28;45445;-53
2022/09/17 11:03:07;;;;;;;;;0.80;0.00;;;;;40.19;13.91;101709.59;5036902;28;45500;-53
2022/09/17 11:05:44;;;;;;;;;0.00;0.00;;;;;40.39;12.54;101690.28;5037177;28;45371;-55
2022/09/17 11:08:28;;;;;;;;;0.00;0.00;;;;;37.60;14.84;101702.34;5036280;28;46235;-50
2022/09/17 11:11:03;;;;;;;;;0.20;0.00;;;;;36.98;14.83;101704.50;5036645;28;45306;-52
2022/09/17 11:13:36;;;;;;;;;0.40;0.00;;;;;39.52;13.81;101688.31;5036828;28;45366;-55
2022/09/17 11:16:17;;;;;;;;;0.00;0.00;;;;;41.53;13.15;101679.88;5037127;28;45425;-48
2022/09/17 11:18:50;;;;;;;;;0.20;0.00;;;;;41.53;12.78;101666.75;5036688;28;45520;-51
2022/09/17 11:21:36;;;;;;;;;0.00;0.00;;;;;39.32;13.14;101690.53;5036442;28;45816;-56
2022/09/17 11:24:19;;;;;;;;;2.00;0.00;;;;;41.44;11.96;101679.09;5036249;28;45374;-53
2022/09/17 11:26:57;;;;;;;;;0.00;0.00;;;;;42.22;12.05;101681.50;5036879;28;45642;-54
2022/09/17 11:29:59;;;;;;;;;2.00;0.00;;;;;42.58;11.99;101673.34;5036642;28;46899;-56
2022/09/17 11:32:55;;;;;;;;;0.00;0.00;;;;;40.68;12.57;101672.13;5036472;28;45311;-56
2022/09/17 11:35:49;;;;;;;;;3.00;0.00;;;;;37.04;15.12;101694.13;5036663;28;45917;-56
2022/09/17 11:38:29;;;;;;;;;0.00;0.00;;;;;34.64;16.41;101693.91;4977774;28;45582;-53
2022/09/17 11:41:07;;;;;;;;;0.40;0.40;;;;;36.21;15.76;101683.38;4975733;28;46350;-54
2022/09/17 11:43:45;;;;;;;;;0.20;0.20;;;;;38.18;14.33;101670.38;4976131;28;45246;-55